createdAt,value
2022-11-03T00:01:11.706Z,94.52
2022-11-03T00:03:38.337Z,94.61
2022-11-03T00:06:05.113Z,94.29
2022-11-03T00:08:32.369Z,94.89
2022-11-03T00:11:03.846Z,94.35
2022-11-03T00:13:30.418Z,94.65
2022-11-03T00:15:57.159Z,95.10
2022-11-03T00:18:25.072Z,95.52
2022-11-03T00:20:56.545Z,95.67
2022-11-03T00:23:25.543Z,95.21
2022-11-03T00:25:52.035Z,95.30
2022-11-03T00:28:18.629Z,94.97
2022-11-03T00:30:45.100Z,95.15
2022-11-03T00:33:11.657Z,94.84
2022-11-03T00:35:39.511Z,94.82
2022-11-03T00:38:06.070Z,95.20
2022-11-03T00:40:32.570Z,96.38
2022-11-03T00:42:59.704Z,96.55
2022-11-03T00:45:26.329Z,96.34
2022-11-03T00:47:56.155Z,95.80
2022-11-03T00:50:22.821Z,95.71
2022-11-03T00:52:50.744Z,96.10
2022-11-03T00:55:17.245Z,95.56
2022-11-03T00:57:43.942Z,95.63
2022-11-03T01:00:11.740Z,95.87
2022-11-03T01:02:38.392Z,95.82
2022-11-03T01:05:05.705Z,95.69
2022-11-03T01:07:32.326Z,95.48
2022-11-03T01:10:00.158Z,96.16
2022-11-03T01:12:27.570Z,95.75
2022-11-03T01:14:54.081Z,96.45
2022-11-03T01:17:22.391Z,95.75
2022-11-03T01:19:49.218Z,96.07
2022-11-03T01:22:16.494Z,96.20
2022-11-03T01:24:43.964Z,95.76
2022-11-03T01:27:15.279Z,95.51
2022-11-03T01:29:41.838Z,95.95
2022-11-03T01:32:08.902Z,96.93
2022-11-03T01:34:35.520Z,96.87
2022-11-03T01:37:02.072Z,97.57
2022-11-03T01:39:28.752Z,97.29
2022-11-03T01:41:55.268Z,97.59
2022-11-03T01:44:33.208Z,97.71
2022-11-03T01:47:05.955Z,97.67
2022-11-03T01:49:39.236Z,97.53
2022-11-03T01:52:09.738Z,97.16
2022-11-03T01:54:38.102Z,97.74
2022-11-03T01:57:11.120Z,96.89
2022-11-03T01:59:40.955Z,97.85
2022-11-03T02:02:07.674Z,98.12
2022-11-03T02:04:35.420Z,98.04
2022-11-03T02:07:11.336Z,97.45
2022-11-03T02:09:37.920Z,97.75
2022-11-03T02:12:05.432Z,98.63
2022-11-03T02:14:32.425Z,99.33
2022-11-03T02:17:05.541Z,99.59
2022-11-03T02:19:35.011Z,99.27
2022-11-03T02:22:14.302Z,99.17
2022-11-03T02:24:52.935Z,99.41
2022-11-03T02:27:22.787Z,99.48
2022-11-03T02:29:49.595Z,99.69
2022-11-03T02:32:22.156Z,99.00
2022-11-03T02:34:55.972Z,99.77
2022-11-03T02:37:26.920Z,99.83
2022-11-03T02:40:00.227Z,99.66
2022-11-03T02:42:29.012Z,99.13
2022-11-03T02:45:00.275Z,99.52
2022-11-03T02:47:29.619Z,100.00
2022-11-03T02:52:36.801Z,100.00
2022-11-03T02:55:10.881Z,100.00
2022-11-03T02:57:45.072Z,100.00
2022-11-03T03:00:13.235Z,100.00
2022-11-03T03:02:50.191Z,100.00
2022-11-03T03:05:19.199Z,100.00
2022-11-03T03:07:49.633Z,100.00
2022-11-03T03:10:19.321Z,100.00
2022-11-03T03:12:50.923Z,100.00
2022-11-03T03:15:19.407Z,100.00
2022-11-03T03:17:52.329Z,100.00
2022-11-03T03:20:23.911Z,100.00
2022-11-03T03:22:56.088Z,100.00
2022-11-03T03:25:26.596Z,100.00
2022-11-03T03:27:59.161Z,100.00
2022-11-03T03:30:27.756Z,100.00
2022-11-03T03:32:55.397Z,100.00
2022-11-03T03:35:25.571Z,100.00
2022-11-03T03:38:00.110Z,100.00
2022-11-03T03:40:31.237Z,100.00
2022-11-03T03:43:01.784Z,100.00
2022-11-03T03:45:30.216Z,100.00
2022-11-03T03:47:57.906Z,100.00
2022-11-03T03:50:29.188Z,100.00
2022-11-03T03:52:57.689Z,100.00
2022-11-03T03:55:34.204Z,100.00
2022-11-03T03:58:03.041Z,100.00
2022-11-03T04:00:29.611Z,100.00
2022-11-03T04:02:56.838Z,100.00
2022-11-03T04:05:23.407Z,100.00
2022-11-03T04:07:50.014Z,100.00
2022-11-03T04:10:18.287Z,100.00
2022-11-03T04:12:45.246Z,100.00
2022-11-03T04:15:13.526Z,100.00
2022-11-03T04:17:43.155Z,100.00
2022-11-03T04:20:13.097Z,100.00
2022-11-03T04:22:39.649Z,100.00
2022-11-03T04:25:07.019Z,100.00
2022-11-03T04:27:35.297Z,100.00
2022-11-03T04:30:13.160Z,100.00
2022-11-03T04:32:41.554Z,100.00
2022-11-03T04:35:15.238Z,100.00
2022-11-03T04:37:47.497Z,100.00
2022-11-03T04:40:16.547Z,100.00
2022-11-03T04:42:44.160Z,100.00
2022-11-03T04:45:21.229Z,100.00
2022-11-03T04:47:49.588Z,100.00
2022-11-03T04:50:18.865Z,100.00
2022-11-03T04:52:45.927Z,100.00
2022-11-03T04:55:15.204Z,100.00
2022-11-03T04:57:41.882Z,100.00
2022-11-03T05:00:14.572Z,100.00
2022-11-03T05:02:41.910Z,100.00
2022-11-03T05:05:16.717Z,100.00
2022-11-03T05:07:43.552Z,100.00
2022-11-03T05:10:15.704Z,100.00
2022-11-03T05:12:42.513Z,100.00
2022-11-03T05:15:27.211Z,100.00
2022-11-03T05:17:54.174Z,100.00
2022-11-03T05:20:35.815Z,100.00
2022-11-03T05:23:04.942Z,100.00
2022-11-03T05:25:37.364Z,100.00
2022-11-03T05:28:08.529Z,100.00
2022-11-03T05:30:35.928Z,100.00
2022-11-03T05:33:02.433Z,100.00
2022-11-03T05:35:30.510Z,100.00
2022-11-03T05:37:57.029Z,100.00
2022-11-03T05:40:25.813Z,100.00
2022-11-03T05:42:56.416Z,100.00
2022-11-03T05:45:26.759Z,100.00
2022-11-03T05:47:55.282Z,100.00
2022-11-03T05:50:24.378Z,100.00
2022-11-03T05:52:56.071Z,100.00
2022-11-03T05:55:28.235Z,100.00
2022-11-03T05:57:58.733Z,100.00
2022-11-03T06:00:31.438Z,100.00
2022-11-03T06:02:59.463Z,100.00
2022-11-03T06:05:26.918Z,100.00
2022-11-03T06:07:57.577Z,100.00
2022-11-03T06:10:26.896Z,100.00
2022-11-03T06:12:59.581Z,100.00
2022-11-03T06:15:30.214Z,100.00
2022-11-03T06:17:57.303Z,100.00
2022-11-03T06:20:24.108Z,100.00
2022-11-03T06:22:53.090Z,100.00
2022-11-03T06:25:27.366Z,100.00
2022-11-03T06:27:56.603Z,100.00
2022-11-03T06:30:26.545Z,100.00
2022-11-03T06:32:54.939Z,100.00
2022-11-03T06:35:21.490Z,100.00
2022-11-03T06:37:48.283Z,100.00
2022-11-03T06:40:34.311Z,100.00
2022-11-03T06:43:13.554Z,100.00
2022-11-03T06:45:48.232Z,100.00
2022-11-03T06:48:20.784Z,100.00
2022-11-03T06:50:47.418Z,100.00
2022-11-03T06:53:21.658Z,100.00
2022-11-03T06:55:50.021Z,100.00
2022-11-03T06:58:23.141Z,100.00
2022-11-03T07:00:51.488Z,100.00
2022-11-03T07:03:23.361Z,100.00
2022-11-03T07:05:50.029Z,100.00
2022-11-03T07:08:23.205Z,100.00
2022-11-03T07:11:00.045Z,100.00
2022-11-03T07:13:28.243Z,100.00
2022-11-03T07:15:54.796Z,100.00
2022-11-03T07:18:23.827Z,100.00
2022-11-03T07:20:51.732Z,100.00
2022-11-03T07:23:21.514Z,100.00
2022-11-03T07:25:52.359Z,100.00
2022-11-03T07:28:19.217Z,100.00
2022-11-03T07:30:45.764Z,100.00
2022-11-03T07:33:16.914Z,100.00
2022-11-03T07:36:13.796Z,100.00
2022-11-03T07:38:33.274Z,100.00
2022-11-03T07:41:01.183Z,100.00
2022-11-03T07:43:31.546Z,100.00
2022-11-03T07:46:01.731Z,100.00
2022-11-03T07:48:34.364Z,100.00
2022-11-03T07:51:12.382Z,100.00
2022-11-03T07:53:41.558Z,100.00
2022-11-03T07:56:19.241Z,100.00
2022-11-03T07:58:47.857Z,100.00
2022-11-03T08:01:27.034Z,100.00
2022-11-03T08:03:58.742Z,99.97
2022-11-03T08:06:25.267Z,99.30
2022-11-03T08:08:51.802Z,99.40
2022-11-03T08:11:21.979Z,98.29
2022-11-03T08:13:51.852Z,97.24
2022-11-03T08:16:18.656Z,97.45
2022-11-03T08:18:45.270Z,94.25
2022-11-03T08:21:12.371Z,94.56
2022-11-03T08:23:43.173Z,94.92
2022-11-03T08:26:12.725Z,93.10
2022-11-03T08:28:40.766Z,91.84
2022-11-03T08:31:12.293Z,90.44
2022-11-03T08:33:40.306Z,88.66
2022-11-03T08:36:07.868Z,88.44
2022-11-03T08:38:34.704Z,86.96
2022-11-03T08:41:01.458Z,86.42
2022-11-03T08:43:28.645Z,85.76
2022-11-03T08:45:57.452Z,86.87
2022-11-03T08:48:27.571Z,86.05
2022-11-03T08:50:55.044Z,84.09
2022-11-03T08:53:22.162Z,83.41
2022-11-03T08:55:48.679Z,82.77
2022-11-03T08:58:15.210Z,83.84
2022-11-03T09:00:41.747Z,83.60
2022-11-03T09:03:10.174Z,82.20
2022-11-03T09:05:36.773Z,81.03
2022-11-03T09:10:49.906Z,80.84
2022-11-03T09:13:16.498Z,79.95
2022-11-03T09:15:43.104Z,80.42
2022-11-03T09:18:11.234Z,80.14
2022-11-03T09:20:37.938Z,80.54
2022-11-03T09:23:04.628Z,80.47
2022-11-03T09:25:31.253Z,79.41
2022-11-03T09:27:57.831Z,78.12
2022-11-03T09:30:24.576Z,77.96
2022-11-03T09:32:51.121Z,79.30
2022-11-03T09:35:19.137Z,79.14
2022-11-03T09:37:45.646Z,78.65
2022-11-03T09:40:15.023Z,76.27
2022-11-03T09:42:42.672Z,77.02
2022-11-03T09:45:10.314Z,76.30
2022-11-03T09:47:39.748Z,75.34
2022-11-03T09:50:11.505Z,75.36
2022-11-03T09:52:39.580Z,75.12
2022-11-03T09:55:13.896Z,76.13
2022-11-03T09:57:40.977Z,75.26
2022-11-03T10:00:15.940Z,74.24
2022-11-03T10:02:42.604Z,74.09
2022-11-03T10:05:13.476Z,74.22
2022-11-03T10:07:44.595Z,74.10
2022-11-03T10:10:16.835Z,72.68
2022-11-03T10:12:44.017Z,73.69
2022-11-03T10:15:14.733Z,73.20
2022-11-03T10:17:42.525Z,72.41
2022-11-03T10:20:11.879Z,73.93
2022-11-03T10:22:41.129Z,72.36
2022-11-03T10:25:35.497Z,72.14
2022-11-03T10:28:20.444Z,71.37
2022-11-03T10:33:41.543Z,71.59
2022-11-03T10:36:23.560Z,70.92
2022-11-03T10:38:50.339Z,71.27
2022-11-03T10:41:20.108Z,70.46
2022-11-03T10:44:00.527Z,70.94
2022-11-03T10:49:17.136Z,72.97
2022-11-03T10:51:46.902Z,72.12
2022-11-03T10:54:15.872Z,71.73
2022-11-03T10:56:46.041Z,71.16
2022-11-03T10:59:18.521Z,70.58
2022-11-03T11:01:45.677Z,69.33
2022-11-03T11:04:15.512Z,69.88
2022-11-03T11:06:42.447Z,69.73
2022-11-03T11:09:12.779Z,69.58
2022-11-03T11:11:39.608Z,70.37
2022-11-03T11:14:34.314Z,69.93
2022-11-03T11:17:01.545Z,71.11
2022-11-03T11:19:29.757Z,71.27
2022-11-03T11:22:01.814Z,70.65
2022-11-03T11:24:57.063Z,71.19
2022-11-03T11:27:58.236Z,70.05
2022-11-03T11:31:01.842Z,70.93
2022-11-03T11:33:32.037Z,70.03
2022-11-03T11:36:22.312Z,71.33
2022-11-03T11:39:12.545Z,70.54
2022-11-03T11:42:07.940Z,69.74
2022-11-03T11:44:56.067Z,70.56
2022-11-03T11:47:32.078Z,71.31
2022-11-03T11:50:17.648Z,70.57
2022-11-03T11:52:47.239Z,70.04
2022-11-03T11:55:18.553Z,69.69
2022-11-03T11:57:46.357Z,70.11
2022-11-03T12:00:20.629Z,70.03
2022-11-03T12:02:47.958Z,70.47
2022-11-03T12:05:21.307Z,71.32
2022-11-03T12:07:48.027Z,71.27
2022-11-03T12:10:15.639Z,71.00
2022-11-03T12:12:42.336Z,71.50
2022-11-03T12:15:41.991Z,70.36
2022-11-03T12:18:35.092Z,71.07
2022-11-03T12:21:09.197Z,71.65
2022-11-03T12:23:38.401Z,71.13
2022-11-03T12:26:05.325Z,71.70
2022-11-03T12:28:33.900Z,72.45
2022-11-03T12:33:32.006Z,72.33
2022-11-03T12:35:58.499Z,71.94
2022-11-03T12:38:26.444Z,71.56
2022-11-03T12:40:52.938Z,71.03
2022-11-03T12:43:19.878Z,71.51
2022-11-03T12:45:46.427Z,71.24
2022-11-03T12:48:13.029Z,71.03
2022-11-03T12:50:39.553Z,71.99
2022-11-03T12:53:06.493Z,71.68
2022-11-03T12:55:35.858Z,71.66
2022-11-03T12:58:03.911Z,71.45
2022-11-03T13:00:30.629Z,71.29
2022-11-03T13:02:57.226Z,71.47
2022-11-03T13:05:23.865Z,71.03
2022-11-03T13:07:50.570Z,72.08
2022-11-03T13:10:17.064Z,71.29
2022-11-03T13:12:44.963Z,71.10
2022-11-03T13:15:11.596Z,71.75
2022-11-03T13:17:59.698Z,70.36
2022-11-03T13:20:24.657Z,70.58
2022-11-03T13:22:51.148Z,70.83
2022-11-03T13:25:17.814Z,70.00
2022-11-03T13:27:45.729Z,70.24
2022-11-03T13:30:13.052Z,70.51
2022-11-03T13:32:39.519Z,70.43
2022-11-03T13:35:09.473Z,70.65
2022-11-03T13:37:39.940Z,70.40
2022-11-03T13:40:08.085Z,70.73
2022-11-03T13:42:34.748Z,70.51
2022-11-03T13:45:02.714Z,70.34
2022-11-03T13:47:52.391Z,69.91
2022-11-03T13:50:16.514Z,70.33
2022-11-03T13:52:43.766Z,70.24
2022-11-03T14:00:46.071Z,70.57
2022-11-03T14:05:59.269Z,69.73
2022-11-03T14:08:26.009Z,69.83
2022-11-03T14:10:52.527Z,70.24
2022-11-03T14:13:19.001Z,69.89
2022-11-03T14:15:46.968Z,69.40
2022-11-03T14:18:13.501Z,68.91
2022-11-03T14:20:40.044Z,69.92
2022-11-03T14:23:06.925Z,70.21
2022-11-03T14:25:33.760Z,69.05
2022-11-03T14:28:00.298Z,69.96
2022-11-03T14:30:26.917Z,69.30
2022-11-03T14:32:59.356Z,69.48
2022-11-03T14:35:26.436Z,69.04
2022-11-03T14:37:52.963Z,68.69
2022-11-03T14:40:19.527Z,68.74
2022-11-03T14:42:46.009Z,68.77
2022-11-03T14:45:12.594Z,69.37
2022-11-03T14:47:39.067Z,69.45
2022-11-03T14:50:07.796Z,69.33
2022-11-03T14:52:34.283Z,69.61
2022-11-03T14:55:00.826Z,69.83
2022-11-03T14:57:27.315Z,69.63
2022-11-03T14:59:53.975Z,69.71
2022-11-03T15:02:20.777Z,69.20
2022-11-03T15:04:47.397Z,69.51
2022-11-03T15:07:15.384Z,69.95
2022-11-03T15:09:41.948Z,69.78
2022-11-03T15:12:08.449Z,71.08
2022-11-03T15:14:35.049Z,72.38
2022-11-03T15:17:01.737Z,74.23
2022-11-03T15:19:28.481Z,75.07
2022-11-03T15:21:54.997Z,74.92
2022-11-03T15:27:09.638Z,76.19
2022-11-03T15:29:36.130Z,76.74
2022-11-03T15:32:02.788Z,76.97
2022-11-03T15:34:29.327Z,76.96
2022-11-03T15:36:55.867Z,77.09
2022-11-03T15:39:23.921Z,78.08
2022-11-03T15:41:50.767Z,78.90
2022-11-03T15:44:17.505Z,79.19
2022-11-03T15:46:44.076Z,79.82
2022-11-03T15:49:10.567Z,79.22
2022-11-03T15:51:37.114Z,80.42
2022-11-03T15:54:03.721Z,80.43
2022-11-03T15:56:31.856Z,80.28
2022-11-03T15:58:58.356Z,81.09
2022-11-03T16:01:25.189Z,80.76
2022-11-03T16:03:51.976Z,80.62
2022-11-03T16:06:18.549Z,80.63
2022-11-03T16:08:45.039Z,80.80
2022-11-03T16:11:11.684Z,81.21
2022-11-03T16:13:39.738Z,81.04
2022-11-03T16:16:06.822Z,80.49
2022-11-03T16:18:33.331Z,81.51
2022-11-03T16:20:59.878Z,82.25
2022-11-03T16:23:26.434Z,82.33
2022-11-03T16:25:53.533Z,82.21
2022-11-03T16:28:20.056Z,82.56
2022-11-03T16:30:53.875Z,82.95
2022-11-03T16:33:21.109Z,82.25
2022-11-03T16:35:47.609Z,82.60
2022-11-03T16:38:14.237Z,82.03
2022-11-03T16:40:40.804Z,82.15
2022-11-03T16:43:07.361Z,81.57
2022-11-03T16:45:37.676Z,82.19
2022-11-03T16:48:07.570Z,82.19
2022-11-03T16:50:34.556Z,81.88
2022-11-03T16:53:01.209Z,82.37
2022-11-03T16:55:27.784Z,82.51
2022-11-03T16:57:54.316Z,83.08
2022-11-03T17:00:21.395Z,83.48
2022-11-03T17:02:48.110Z,82.91
2022-11-03T17:05:16.632Z,82.88
2022-11-03T17:07:43.936Z,83.26
2022-11-03T17:10:13.484Z,83.48
2022-11-03T17:12:40.077Z,83.16
2022-11-03T17:15:07.920Z,83.15
2022-11-03T17:17:34.676Z,83.21
2022-11-03T17:20:01.280Z,83.26
2022-11-03T17:22:29.180Z,83.41
2022-11-03T17:24:55.901Z,84.02
2022-11-03T17:27:25.632Z,83.45
2022-11-03T17:29:55.472Z,83.93
2022-11-03T17:32:24.904Z,83.22
2022-11-03T17:34:52.661Z,83.19
2022-11-03T17:37:19.810Z,83.86
2022-11-03T17:39:47.718Z,83.72
2022-11-03T17:42:16.155Z,83.36
2022-11-03T17:44:42.986Z,83.58
2022-11-03T17:47:09.512Z,82.34
2022-11-03T17:49:36.957Z,82.84
2022-11-03T17:52:03.892Z,83.38
2022-11-03T17:54:32.270Z,83.46
2022-11-03T17:57:01.573Z,83.65
2022-11-03T17:59:28.583Z,84.02
2022-11-03T18:01:55.642Z,83.47
2022-11-03T18:04:22.964Z,83.20
2022-11-03T18:06:49.596Z,83.31
2022-11-03T18:09:16.221Z,82.80
2022-11-03T18:11:43.533Z,82.90
2022-11-03T18:14:11.680Z,81.75
2022-11-03T18:16:38.447Z,81.98
2022-11-03T18:19:06.213Z,82.18
2022-11-03T18:21:32.819Z,82.82
2022-11-03T18:23:59.365Z,82.74
2022-11-03T18:26:26.546Z,82.94
2022-11-03T18:28:53.386Z,83.38
2022-11-03T18:31:24.419Z,83.11
2022-11-03T18:33:51.955Z,83.63
2022-11-03T18:36:19.823Z,82.11
2022-11-03T18:38:46.886Z,82.55
2022-11-03T18:41:14.982Z,82.91
2022-11-03T18:43:41.889Z,83.77
2022-11-03T18:46:08.407Z,83.13
2022-11-03T18:48:36.361Z,83.78
2022-11-03T18:51:03.130Z,83.58
2022-11-03T18:53:29.917Z,83.64
2022-11-03T18:55:59.772Z,83.64
2022-11-03T18:58:26.800Z,84.21
2022-11-03T19:00:53.557Z,83.64
2022-11-03T19:03:22.182Z,83.82
2022-11-03T19:05:52.472Z,84.60
2022-11-03T19:08:22.774Z,84.96
2022-11-03T19:10:50.728Z,84.95
2022-11-03T19:13:24.593Z,85.52
2022-11-03T19:15:51.264Z,86.02
2022-11-03T19:18:17.827Z,87.34
2022-11-03T19:20:44.419Z,87.86
2022-11-03T19:23:12.491Z,88.75
2022-11-03T19:25:41.011Z,88.16
2022-11-03T19:28:11.514Z,89.05
2022-11-03T19:30:38.181Z,88.96
2022-11-03T19:33:05.937Z,90.29
2022-11-03T19:35:34.980Z,90.66
2022-11-03T19:38:03.855Z,90.34
2022-11-03T19:40:32.703Z,90.52
2022-11-03T19:42:59.315Z,90.90
2022-11-03T19:45:26.237Z,91.45
2022-11-03T19:48:18.674Z,91.76
2022-11-03T19:50:44.276Z,92.15
2022-11-03T19:53:16.223Z,92.53
2022-11-03T19:55:44.280Z,92.95
2022-11-03T19:58:13.929Z,93.96
2022-11-03T20:00:40.770Z,93.80
2022-11-03T20:03:07.474Z,93.72
2022-11-03T20:05:34.235Z,94.73
2022-11-03T20:08:04.093Z,94.81
2022-11-03T20:10:33.351Z,96.26
2022-11-03T20:13:03.931Z,97.10
2022-11-03T20:15:30.492Z,97.07
2022-11-03T20:17:57.110Z,97.41
2022-11-03T20:20:25.053Z,97.54
2022-11-03T20:22:54.283Z,96.55
2022-11-03T20:25:23.952Z,96.30
2022-11-03T20:27:51.568Z,95.76
2022-11-03T20:30:21.064Z,95.96
2022-11-03T20:32:48.592Z,95.93
2022-11-03T20:35:20.001Z,95.80
2022-11-03T20:37:52.010Z,95.84
2022-11-03T20:40:21.108Z,95.79
2022-11-03T20:42:50.846Z,95.55
2022-11-03T20:45:21.510Z,95.60
2022-11-03T20:47:48.620Z,95.79
2022-11-03T20:50:17.233Z,95.97
2022-11-03T20:52:45.042Z,95.98
2022-11-03T20:55:16.936Z,96.02
2022-11-03T20:57:44.443Z,95.82
2022-11-03T21:00:15.158Z,95.86
2022-11-03T21:02:43.753Z,96.27
2022-11-03T21:05:14.401Z,96.21
2022-11-03T21:07:41.286Z,96.22
2022-11-03T21:10:08.499Z,96.54
2022-11-03T21:12:35.247Z,96.43
2022-11-03T21:15:02.057Z,96.32
2022-11-03T21:17:28.642Z,96.29
2022-11-03T21:19:56.690Z,96.07
2022-11-03T21:22:50.231Z,96.55
2022-11-03T21:25:13.665Z,96.35
2022-11-03T21:27:42.064Z,96.56
2022-11-03T21:30:11.247Z,96.15
2022-11-03T21:32:37.812Z,96.80
2022-11-03T21:35:06.653Z,96.69
2022-11-03T21:37:36.068Z,96.64
2022-11-03T21:40:02.700Z,96.80
2022-11-03T21:42:29.199Z,97.29
2022-11-03T21:44:57.340Z,97.19
2022-11-03T21:47:24.549Z,97.14
2022-11-03T21:49:51.498Z,97.27
2022-11-03T21:52:21.381Z,97.25
2022-11-03T21:54:47.915Z,97.66
2022-11-03T21:57:14.921Z,97.61
2022-11-03T21:59:41.548Z,97.49
2022-11-03T22:02:11.953Z,97.91
2022-11-03T22:04:38.625Z,97.82
2022-11-03T22:07:05.267Z,97.76
2022-11-03T22:09:33.474Z,97.65
2022-11-03T22:12:00.086Z,98.10
2022-11-03T22:14:26.708Z,97.93
2022-11-03T22:16:53.303Z,98.18
2022-11-03T22:19:21.056Z,98.53
2022-11-03T22:21:47.762Z,98.55
2022-11-03T22:24:14.512Z,98.98
2022-11-03T22:26:42.462Z,99.18
2022-11-03T22:29:09.071Z,99.63
2022-11-03T22:31:35.741Z,99.68
2022-11-03T22:34:02.319Z,99.59
2022-11-03T22:36:28.832Z,99.68
2022-11-03T22:38:55.427Z,99.55
2022-11-03T22:41:21.978Z,99.66
2022-11-03T22:43:49.905Z,99.80
2022-11-03T22:46:17.424Z,99.83
2022-11-03T22:48:44.392Z,100.00
2022-11-03T22:51:13.043Z,100.00
2022-11-03T22:53:39.704Z,100.00
2022-11-03T22:56:06.248Z,100.00
2022-11-03T22:58:33.197Z,100.00
2022-11-03T23:01:04.926Z,99.95
2022-11-03T23:03:32.614Z,100.00
2022-11-03T23:06:01.017Z,99.88
2022-11-03T23:08:30.040Z,97.28
2022-11-03T23:10:56.758Z,96.47
2022-11-03T23:13:23.441Z,96.35
2022-11-03T23:15:50.506Z,95.80
2022-11-03T23:18:18.432Z,95.98
2022-11-03T23:20:45.598Z,95.97
2022-11-03T23:23:12.409Z,96.20
2022-11-03T23:25:38.903Z,96.14
2022-11-03T23:28:05.464Z,95.59
2022-11-03T23:30:31.994Z,94.39
2022-11-03T23:33:00.218Z,94.44
2022-11-03T23:35:28.079Z,94.50
2022-11-03T23:37:54.661Z,94.16
2022-11-03T23:40:21.527Z,93.96
2022-11-03T23:42:48.227Z,93.90
2022-11-03T23:45:14.963Z,93.75
2022-11-03T23:47:41.520Z,93.08
2022-11-03T23:50:08.555Z,92.95
2022-11-03T23:52:36.498Z,92.55
2022-11-03T23:55:03.251Z,92.59
2022-11-03T23:57:29.868Z,92.29
2022-11-03T23:59:56.677Z,92.27
